KRYW

Lago Vista Tx - Rusty Allen Airport

Lago Vista, Texas, USA
METAR KRYW 160555Z AUTO 18008G14KT 10SM CLR 28/21 A3002 RMK AO2 T02750208 10347 20275 403600243
Observed Flight Rules
Aug-16 @ 05:55 UTC (21 minutes ago) Visual Flight Rules
Wind Visibility Clouds
180° at 8 knots
 Gusting to 14 knots
10 miles
  • Clear skies
Temperatures Readings
Current 28°C / 82°F
Dewpoint 21°C / 70°F
Humidity 66%
Altimeter 30.02" Hg
Pressure 1017 hPa
Elevation 376
METAR KRYW 160555Z AUTO 18008G14KT 10SM CLR 28/21 A3002 RMK AO2 T02750208 10347 20275 403600243
Observed Flight Rules
Aug-16 @ 05:55 UTC
(21 minutes ago)
VFR
Wind Visibility
180° at 8 knots
 Gusting to 14 knots
10 miles
Clouds
  • Clear skies
Temperature Dewpoint
28°C / 82°F 21°C / 70°F
Humidity Altimeter Pressure
66% 30.02" Hg 1017 hPa